sensor_id;sensor_type;location;lat;lon;timestamp;temperature;humidity
76857;DHT22;69705;44.686;37.628;2023-07-20T00:01:52;18.65;85.18
76857;DHT22;69705;44.686;37.628;2023-07-20T00:04:19;18.65;85.29
76857;DHT22;69705;44.686;37.628;2023-07-20T00:06:46;18.65;84.90
76857;DHT22;69705;44.686;37.628;2023-07-20T00:09:13;18.63;85.09
76857;DHT22;69705;44.686;37.628;2023-07-20T00:11:40;18.62;85.09
76857;DHT22;69705;44.686;37.628;2023-07-20T00:14:07;18.59;85.55
76857;DHT22;69705;44.686;37.628;2023-07-20T00:16:36;18.62;85.21
76857;DHT22;69705;44.686;37.628;2023-07-20T00:19:03;18.55;84.99
76857;DHT22;69705;44.686;37.628;2023-07-20T00:21:31;18.54;84.60
76857;DHT22;69705;44.686;37.628;2023-07-20T00:23:58;18.55;84.69
76857;DHT22;69705;44.686;37.628;2023-07-20T00:26:25;18.55;84.61
76857;DHT22;69705;44.686;37.628;2023-07-20T00:28:52;18.53;85.00
76857;DHT22;69705;44.686;37.628;2023-07-20T00:31:19;18.51;85.16
76857;DHT22;69705;44.686;37.628;2023-07-20T00:33:46;18.44;85.32
76857;DHT22;69705;44.686;37.628;2023-07-20T00:36:13;18.47;85.25
76857;DHT22;69705;44.686;37.628;2023-07-20T00:38:42;18.42;85.31
76857;DHT22;69705;44.686;37.628;2023-07-20T00:41:09;18.39;85.35
76857;DHT22;69705;44.686;37.628;2023-07-20T00:43:36;18.39;85.20
76857;DHT22;69705;44.686;37.628;2023-07-20T00:46:03;18.36;85.43
76857;DHT22;69705;44.686;37.628;2023-07-20T00:48:30;18.33;85.44
76857;DHT22;69705;44.686;37.628;2023-07-20T00:50:59;18.29;85.59
76857;DHT22;69705;44.686;37.628;2023-07-20T00:53:27;18.28;85.72
76857;DHT22;69705;44.686;37.628;2023-07-20T00:55:54;18.29;85.50
76857;DHT22;69705;44.686;37.628;2023-07-20T00:58:21;18.30;85.54
76857;DHT22;69705;44.686;37.628;2023-07-20T01:00:48;18.26;85.86
76857;DHT22;69705;44.686;37.628;2023-07-20T01:03:15;18.26;85.84
76857;DHT22;69705;44.686;37.628;2023-07-20T01:14:25;18.24;85.95
76857;DHT22;69705;44.686;37.628;2023-07-20T01:16:52;18.24;86.03
76857;DHT22;69705;44.686;37.628;2023-07-20T01:19:19;18.22;85.68
76857;DHT22;69705;44.686;37.628;2023-07-20T01:21:49;18.22;85.52
76857;DHT22;69705;44.686;37.628;2023-07-20T01:24:37;18.23;85.26
76857;DHT22;69705;44.686;37.628;2023-07-20T01:32:15;18.35;84.97
76857;DHT22;69705;44.686;37.628;2023-07-20T01:34:44;18.40;84.78
76857;DHT22;69705;44.686;37.628;2023-07-20T01:37:12;18.39;84.87
76857;DHT22;69705;44.686;37.628;2023-07-20T01:39:40;18.37;85.03
76857;DHT22;69705;44.686;37.628;2023-07-20T01:42:07;18.35;85.11
76857;DHT22;69705;44.686;37.628;2023-07-20T01:44:34;18.36;85.22
76857;DHT22;69705;44.686;37.628;2023-07-20T01:47:01;18.34;84.63
76857;DHT22;69705;44.686;37.628;2023-07-20T01:49:27;18.28;85.06
76857;DHT22;69705;44.686;37.628;2023-07-20T01:51:54;18.26;84.63
76857;DHT22;69705;44.686;37.628;2023-07-20T01:54:21;18.26;84.68
76857;DHT22;69705;44.686;37.628;2023-07-20T01:56:48;18.19;84.61
76857;DHT22;69705;44.686;37.628;2023-07-20T01:59:15;18.21;84.84
76857;DHT22;69705;44.686;37.628;2023-07-20T02:01:42;18.21;85.08
76857;DHT22;69705;44.686;37.628;2023-07-20T02:04:08;18.19;85.24
76857;DHT22;69705;44.686;37.628;2023-07-20T02:06:35;18.18;84.74
76857;DHT22;69705;44.686;37.628;2023-07-20T02:09:02;18.20;84.82
76857;DHT22;69705;44.686;37.628;2023-07-20T02:11:31;18.15;85.03
76857;DHT22;69705;44.686;37.628;2023-07-20T02:13:58;18.10;85.21
76857;DHT22;69705;44.686;37.628;2023-07-20T02:16:25;18.13;85.64
76857;DHT22;69705;44.686;37.628;2023-07-20T02:18:52;18.17;85.19
76857;DHT22;69705;44.686;37.628;2023-07-20T02:21:19;18.15;85.17
76857;DHT22;69705;44.686;37.628;2023-07-20T02:23:46;18.20;84.69
76857;DHT22;69705;44.686;37.628;2023-07-20T02:26:13;18.15;85.10
76857;DHT22;69705;44.686;37.628;2023-07-20T02:28:41;18.12;85.43
76857;DHT22;69705;44.686;37.628;2023-07-20T02:31:08;18.11;85.66
76857;DHT22;69705;44.686;37.628;2023-07-20T02:33:35;18.12;85.77
76857;DHT22;69705;44.686;37.628;2023-07-20T02:36:02;18.11;86.29
76857;DHT22;69705;44.686;37.628;2023-07-20T02:38:29;18.09;85.96
76857;DHT22;69705;44.686;37.628;2023-07-20T02:40:56;18.09;85.78
76857;DHT22;69705;44.686;37.628;2023-07-20T02:43:23;18.08;86.41
76857;DHT22;69705;44.686;37.628;2023-07-20T02:45:50;18.08;86.20
76857;DHT22;69705;44.686;37.628;2023-07-20T02:48:17;18.06;86.53
76857;DHT22;69705;44.686;37.628;2023-07-20T02:50:45;18.05;86.61
76857;DHT22;69705;44.686;37.628;2023-07-20T02:53:12;18.05;86.77
76857;DHT22;69705;44.686;37.628;2023-07-20T02:55:39;18.09;86.57
76857;DHT22;69705;44.686;37.628;2023-07-20T02:58:06;18.19;86.15
76857;DHT22;69705;44.686;37.628;2023-07-20T03:00:33;18.18;86.43
76857;DHT22;69705;44.686;37.628;2023-07-20T03:02:59;18.19;86.93
76857;DHT22;69705;44.686;37.628;2023-07-20T03:05:26;18.24;86.26
76857;DHT22;69705;44.686;37.628;2023-07-20T03:07:55;18.32;86.38
76857;DHT22;69705;44.686;37.628;2023-07-20T03:10:22;18.34;86.23
76857;DHT22;69705;44.686;37.628;2023-07-20T03:12:49;18.42;86.48
76857;DHT22;69705;44.686;37.628;2023-07-20T03:15:16;18.48;86.56
76857;DHT22;69705;44.686;37.628;2023-07-20T03:17:43;18.62;86.29
76857;DHT22;69705;44.686;37.628;2023-07-20T03:20:11;18.69;86.25
76857;DHT22;69705;44.686;37.628;2023-07-20T03:22:40;18.79;86.12
76857;DHT22;69705;44.686;37.628;2023-07-20T03:25:08;18.85;86.17
76857;DHT22;69705;44.686;37.628;2023-07-20T03:27:35;18.93;85.65
76857;DHT22;69705;44.686;37.628;2023-07-20T03:30:03;19.01;85.74
76857;DHT22;69705;44.686;37.628;2023-07-20T03:32:30;19.12;86.06
76857;DHT22;69705;44.686;37.628;2023-07-20T03:34:57;19.20;85.87
76857;DHT22;69705;44.686;37.628;2023-07-20T03:37:24;19.25;85.78
76857;DHT22;69705;44.686;37.628;2023-07-20T03:39:52;19.31;85.51
76857;DHT22;69705;44.686;37.628;2023-07-20T03:42:19;19.40;85.33
76857;DHT22;69705;44.686;37.628;2023-07-20T03:44:45;19.48;85.95
76857;DHT22;69705;44.686;37.628;2023-07-20T03:47:12;19.55;85.77
76857;DHT22;69705;44.686;37.628;2023-07-20T03:49:39;19.61;85.90
76857;DHT22;69705;44.686;37.628;2023-07-20T03:52:06;19.67;85.81
76857;DHT22;69705;44.686;37.628;2023-07-20T03:54:33;19.76;86.08
76857;DHT22;69705;44.686;37.628;2023-07-20T03:57:00;19.84;86.15
76857;DHT22;69705;44.686;37.628;2023-07-20T03:59:27;19.89;85.76
76857;DHT22;69705;44.686;37.628;2023-07-20T04:01:54;19.96;86.06
76857;DHT22;69705;44.686;37.628;2023-07-20T04:04:21;20.06;86.06
76857;DHT22;69705;44.686;37.628;2023-07-20T04:06:48;20.21;85.58
76857;DHT22;69705;44.686;37.628;2023-07-20T04:09:15;20.33;85.14
76857;DHT22;69705;44.686;37.628;2023-07-20T04:11:42;20.47;84.32
76857;DHT22;69705;44.686;37.628;2023-07-20T04:14:08;20.58;84.68
76857;DHT22;69705;44.686;37.628;2023-07-20T04:16:35;20.69;85.02
76857;DHT22;69705;44.686;37.628;2023-07-20T04:19:03;20.84;84.66
76857;DHT22;69705;44.686;37.628;2023-07-20T04:21:30;21.01;84.17
76857;DHT22;69705;44.686;37.628;2023-07-20T04:23:57;21.16;83.57
76857;DHT22;69705;44.686;37.628;2023-07-20T04:26:24;21.30;83.72
76857;DHT22;69705;44.686;37.628;2023-07-20T04:28:51;21.45;83.12
76857;DHT22;69705;44.686;37.628;2023-07-20T04:31:39;21.62;82.62
76857;DHT22;69705;44.686;37.628;2023-07-20T04:34:06;21.76;81.05
76857;DHT22;69705;44.686;37.628;2023-07-20T04:36:35;21.90;80.87
76857;DHT22;69705;44.686;37.628;2023-07-20T04:39:03;22.06;80.02
76857;DHT22;69705;44.686;37.628;2023-07-20T04:41:36;22.21;79.14
76857;DHT22;69705;44.686;37.628;2023-07-20T04:44:04;22.32;78.86
76857;DHT22;69705;44.686;37.628;2023-07-20T04:46:31;22.44;78.98
76857;DHT22;69705;44.686;37.628;2023-07-20T04:49:01;22.55;78.78
76857;DHT22;69705;44.686;37.628;2023-07-20T04:51:30;22.68;77.76
76857;DHT22;69705;44.686;37.628;2023-07-20T04:53:57;22.77;78.68
76857;DHT22;69705;44.686;37.628;2023-07-20T04:56:25;22.88;77.14
76857;DHT22;69705;44.686;37.628;2023-07-20T04:58:54;23.03;76.44
76857;DHT22;69705;44.686;37.628;2023-07-20T05:01:20;23.12;77.66
76857;DHT22;69705;44.686;37.628;2023-07-20T05:03:47;23.22;77.44
76857;DHT22;69705;44.686;37.628;2023-07-20T05:06:15;23.30;76.22
76857;DHT22;69705;44.686;37.628;2023-07-20T05:08:42;23.42;76.19
76857;DHT22;69705;44.686;37.628;2023-07-20T05:11:09;23.51;75.79
76857;DHT22;69705;44.686;37.628;2023-07-20T05:13:36;23.59;76.66
76857;DHT22;69705;44.686;37.628;2023-07-20T05:16:03;23.68;75.57
76857;DHT22;69705;44.686;37.628;2023-07-20T05:18:31;23.84;76.37
76857;DHT22;69705;44.686;37.628;2023-07-20T05:20:58;23.91;75.44
76857;DHT22;69705;44.686;37.628;2023-07-20T05:23:25;24.01;76.89
76857;DHT22;69705;44.686;37.628;2023-07-20T05:25:56;24.15;76.09
76857;DHT22;69705;44.686;37.628;2023-07-20T05:28:24;24.26;78.39
76857;DHT22;69705;44.686;37.628;2023-07-20T05:30:51;24.36;78.46
76857;DHT22;69705;44.686;37.628;2023-07-20T05:33:19;24.46;77.83
76857;DHT22;69705;44.686;37.628;2023-07-20T05:35:46;24.53;77.95
76857;DHT22;69705;44.686;37.628;2023-07-20T05:38:13;24.61;78.00
76857;DHT22;69705;44.686;37.628;2023-07-20T05:40:41;24.65;77.24
76857;DHT22;69705;44.686;37.628;2023-07-20T05:43:09;24.71;78.06
76857;DHT22;69705;44.686;37.628;2023-07-20T05:45:37;24.77;78.77
76857;DHT22;69705;44.686;37.628;2023-07-20T05:48:04;24.83;78.78
76857;DHT22;69705;44.686;37.628;2023-07-20T05:50:31;24.86;77.40
76857;DHT22;69705;44.686;37.628;2023-07-20T05:52:57;24.94;76.83
76857;DHT22;69705;44.686;37.628;2023-07-20T05:55:24;25.00;76.17
76857;DHT22;69705;44.686;37.628;2023-07-20T05:57:51;25.03;76.07
76857;DHT22;69705;44.686;37.628;2023-07-20T06:00:18;25.05;75.76
76857;DHT22;69705;44.686;37.628;2023-07-20T06:02:46;25.06;76.23
76857;DHT22;69705;44.686;37.628;2023-07-20T06:05:14;25.08;75.36
76857;DHT22;69705;44.686;37.628;2023-07-20T06:07:41;25.10;75.15
76857;DHT22;69705;44.686;37.628;2023-07-20T06:10:08;25.13;76.40
76857;DHT22;69705;44.686;37.628;2023-07-20T06:12:35;25.15;76.66
76857;DHT22;69705;44.686;37.628;2023-07-20T06:15:03;25.23;75.67
76857;DHT22;69705;44.686;37.628;2023-07-20T06:17:31;25.27;74.56
76857;DHT22;69705;44.686;37.628;2023-07-20T06:19:57;25.31;75.09
76857;DHT22;69705;44.686;37.628;2023-07-20T06:22:24;25.38;74.22
76857;DHT22;69705;44.686;37.628;2023-07-20T06:24:51;25.45;75.54
76857;DHT22;69705;44.686;37.628;2023-07-20T06:27:18;25.48;74.69
76857;DHT22;69705;44.686;37.628;2023-07-20T06:29:45;25.51;74.54
76857;DHT22;69705;44.686;37.628;2023-07-20T06:32:11;25.56;74.22
76857;DHT22;69705;44.686;37.628;2023-07-20T06:34:40;25.51;74.41
76857;DHT22;69705;44.686;37.628;2023-07-20T06:37:07;25.50;74.47
76857;DHT22;69705;44.686;37.628;2023-07-20T06:39:34;25.50;73.83
76857;DHT22;69705;44.686;37.628;2023-07-20T06:42:00;25.56;75.17
76857;DHT22;69705;44.686;37.628;2023-07-20T06:44:28;25.52;74.58
76857;DHT22;69705;44.686;37.628;2023-07-20T06:46:54;25.59;74.55
76857;DHT22;69705;44.686;37.628;2023-07-20T06:49:28;25.64;74.14
76857;DHT22;69705;44.686;37.628;2023-07-20T06:51:54;25.64;74.09
76857;DHT22;69705;44.686;37.628;2023-07-20T06:54:21;25.66;73.80
76857;DHT22;69705;44.686;37.628;2023-07-20T06:56:48;25.75;74.86
76857;DHT22;69705;44.686;37.628;2023-07-20T06:59:15;25.66;73.77
76857;DHT22;69705;44.686;37.628;2023-07-20T07:01:42;25.72;74.07
76857;DHT22;69705;44.686;37.628;2023-07-20T07:04:09;25.76;73.61
76857;DHT22;69705;44.686;37.628;2023-07-20T07:06:36;25.79;72.69
76857;DHT22;69705;44.686;37.628;2023-07-20T07:09:03;25.82;73.59
76857;DHT22;69705;44.686;37.628;2023-07-20T07:11:30;25.84;72.14
76857;DHT22;69705;44.686;37.628;2023-07-20T07:13:59;25.81;72.03
76857;DHT22;69705;44.686;37.628;2023-07-20T07:16:26;25.83;72.92
76857;DHT22;69705;44.686;37.628;2023-07-20T07:18:53;25.89;73.30
76857;DHT22;69705;44.686;37.628;2023-07-20T07:21:20;25.96;72.42
76857;DHT22;69705;44.686;37.628;2023-07-20T07:23:47;25.92;72.32
76857;DHT22;69705;44.686;37.628;2023-07-20T07:26:14;25.96;72.87
76857;DHT22;69705;44.686;37.628;2023-07-20T07:28:41;25.98;72.51
76857;DHT22;69705;44.686;37.628;2023-07-20T07:31:08;25.97;72.35
76857;DHT22;69705;44.686;37.628;2023-07-20T07:33:35;26.04;71.94
76857;DHT22;69705;44.686;37.628;2023-07-20T07:36:03;26.04;73.09
76857;DHT22;69705;44.686;37.628;2023-07-20T07:38:30;26.12;72.11
76857;DHT22;69705;44.686;37.628;2023-07-20T07:40:58;26.08;72.00
76857;DHT22;69705;44.686;37.628;2023-07-20T07:43:25;26.20;73.41
76857;DHT22;69705;44.686;37.628;2023-07-20T07:45:54;26.32;72.41
76857;DHT22;69705;44.686;37.628;2023-07-20T07:48:21;26.35;72.81
76857;DHT22;69705;44.686;37.628;2023-07-20T07:50:48;26.46;72.25
76857;DHT22;69705;44.686;37.628;2023-07-20T07:53:16;26.58;71.36
76857;DHT22;69705;44.686;37.628;2023-07-20T07:55:43;26.64;71.71
76857;DHT22;69705;44.686;37.628;2023-07-20T07:58:10;26.81;72.66
76857;DHT22;69705;44.686;37.628;2023-07-20T08:00:37;26.83;70.42
76857;DHT22;69705;44.686;37.628;2023-07-20T08:03:04;26.90;70.07
76857;DHT22;69705;44.686;37.628;2023-07-20T08:05:30;26.89;68.60
76857;DHT22;69705;44.686;37.628;2023-07-20T08:07:57;26.83;68.50
76857;DHT22;69705;44.686;37.628;2023-07-20T08:10:24;26.82;69.50
76857;DHT22;69705;44.686;37.628;2023-07-20T08:12:51;26.91;69.33
76857;DHT22;69705;44.686;37.628;2023-07-20T08:15:18;26.91;69.55
76857;DHT22;69705;44.686;37.628;2023-07-20T08:17:45;26.92;69.75
76857;DHT22;69705;44.686;37.628;2023-07-20T08:20:13;27.06;70.96
76857;DHT22;69705;44.686;37.628;2023-07-20T08:22:40;27.21;70.18
76857;DHT22;69705;44.686;37.628;2023-07-20T08:25:08;27.16;70.88
76857;DHT22;69705;44.686;37.628;2023-07-20T08:27:36;27.24;70.13
76857;DHT22;69705;44.686;37.628;2023-07-20T08:30:04;27.29;69.16
76857;DHT22;69705;44.686;37.628;2023-07-20T08:32:33;27.30;70.57
76857;DHT22;69705;44.686;37.628;2023-07-20T08:34:59;27.44;69.94
76857;DHT22;69705;44.686;37.628;2023-07-20T08:37:26;27.57;69.07
76857;DHT22;69705;44.686;37.628;2023-07-20T08:39:54;27.63;69.47
76857;DHT22;69705;44.686;37.628;2023-07-20T08:42:22;27.71;69.49
76857;DHT22;69705;44.686;37.628;2023-07-20T08:44:49;27.88;70.55
76857;DHT22;69705;44.686;37.628;2023-07-20T08:47:20;27.88;69.25
76857;DHT22;69705;44.686;37.628;2023-07-20T08:49:50;27.91;69.42
76857;DHT22;69705;44.686;37.628;2023-07-20T08:52:17;27.90;67.53
76857;DHT22;69705;44.686;37.628;2023-07-20T08:54:44;28.09;68.48
76857;DHT22;69705;44.686;37.628;2023-07-20T08:57:13;28.25;67.81
76857;DHT22;69705;44.686;37.628;2023-07-20T08:59:41;28.33;66.27
76857;DHT22;69705;44.686;37.628;2023-07-20T09:02:10;28.41;65.91
76857;DHT22;69705;44.686;37.628;2023-07-20T09:04:38;28.35;65.65
76857;DHT22;69705;44.686;37.628;2023-07-20T09:07:05;28.48;65.17
76857;DHT22;69705;44.686;37.628;2023-07-20T09:09:32;28.50;65.40
76857;DHT22;69705;44.686;37.628;2023-07-20T09:11:59;28.55;65.19
76857;DHT22;69705;44.686;37.628;2023-07-20T09:14:26;28.68;65.95
76857;DHT22;69705;44.686;37.628;2023-07-20T09:16:54;28.80;65.50
76857;DHT22;69705;44.686;37.628;2023-07-20T09:19:21;28.97;64.11
76857;DHT22;69705;44.686;37.628;2023-07-20T09:21:49;28.84;63.41
76857;DHT22;69705;44.686;37.628;2023-07-20T09:24:22;29.00;64.71
76857;DHT22;69705;44.686;37.628;2023-07-20T09:26:49;29.13;62.90
76857;DHT22;69705;44.686;37.628;2023-07-20T09:29:18;29.29;59.92
76857;DHT22;69705;44.686;37.628;2023-07-20T09:32:02;29.33;60.94
76857;DHT22;69705;44.686;37.628;2023-07-20T09:34:32;29.26;60.22
76857;DHT22;69705;44.686;37.628;2023-07-20T09:36:59;29.33;56.49
76857;DHT22;69705;44.686;37.628;2023-07-20T09:39:27;29.46;54.07
76857;DHT22;69705;44.686;37.628;2023-07-20T09:41:54;29.65;49.66
76857;DHT22;69705;44.686;37.628;2023-07-20T09:44:21;29.51;54.93
76857;DHT22;69705;44.686;37.628;2023-07-20T09:46:49;29.64;58.90
76857;DHT22;69705;44.686;37.628;2023-07-20T09:49:17;29.60;59.47
76857;DHT22;69705;44.686;37.628;2023-07-20T09:51:45;29.68;59.37
76857;DHT22;69705;44.686;37.628;2023-07-20T09:54:13;29.72;60.71
76857;DHT22;69705;44.686;37.628;2023-07-20T09:56:40;29.63;61.85
76857;DHT22;69705;44.686;37.628;2023-07-20T09:59:08;29.76;62.55
76857;DHT22;69705;44.686;37.628;2023-07-20T10:01:41;29.87;62.31
76857;DHT22;69705;44.686;37.628;2023-07-20T10:04:09;29.94;62.31
76857;DHT22;69705;44.686;37.628;2023-07-20T10:06:42;30.00;62.84
76857;DHT22;69705;44.686;37.628;2023-07-20T10:09:10;30.03;59.37
76857;DHT22;69705;44.686;37.628;2023-07-20T10:11:40;30.12;56.18
76857;DHT22;69705;44.686;37.628;2023-07-20T10:14:12;30.07;58.62
76857;DHT22;69705;44.686;37.628;2023-07-20T10:16:55;30.21;57.64
76857;DHT22;69705;44.686;37.628;2023-07-20T10:19:46;30.23;55.33
76857;DHT22;69705;44.686;37.628;2023-07-20T10:22:27;30.26;50.07
76857;DHT22;69705;44.686;37.628;2023-07-20T10:24:58;30.31;51.78
76857;DHT22;69705;44.686;37.628;2023-07-20T10:27:26;30.31;54.23
76857;DHT22;69705;44.686;37.628;2023-07-20T10:29:53;30.38;53.30
76857;DHT22;69705;44.686;37.628;2023-07-20T10:32:22;30.36;54.95
76857;DHT22;69705;44.686;37.628;2023-07-20T10:34:52;30.57;51.59
76857;DHT22;69705;44.686;37.628;2023-07-20T10:37:48;30.67;52.21
76857;DHT22;69705;44.686;37.628;2023-07-20T10:40:34;30.66;54.31
76857;DHT22;69705;44.686;37.628;2023-07-20T10:43:04;30.69;53.39
76857;DHT22;69705;44.686;37.628;2023-07-20T10:46:03;30.89;56.89
76857;DHT22;69705;44.686;37.628;2023-07-20T10:48:30;31.01;52.27
76857;DHT22;69705;44.686;37.628;2023-07-20T10:51:20;30.89;48.44
76857;DHT22;69705;44.686;37.628;2023-07-20T10:53:50;30.63;47.89
76857;DHT22;69705;44.686;37.628;2023-07-20T10:56:22;30.83;48.17
76857;DHT22;69705;44.686;37.628;2023-07-20T10:58:49;30.96;46.37
76857;DHT22;69705;44.686;37.628;2023-07-20T11:01:17;31.15;48.32
76857;DHT22;69705;44.686;37.628;2023-07-20T11:03:49;31.13;47.63
76857;DHT22;69705;44.686;37.628;2023-07-20T11:08:57;31.16;49.42
76857;DHT22;69705;44.686;37.628;2023-07-20T11:11:49;31.22;50.24
76857;DHT22;69705;44.686;37.628;2023-07-20T11:14:25;31.41;46.71
76857;DHT22;69705;44.686;37.628;2023-07-20T11:16:53;31.34;48.99
76857;DHT22;69705;44.686;37.628;2023-07-20T11:19:23;31.31;44.45
76857;DHT22;69705;44.686;37.628;2023-07-20T11:21:55;31.51;47.39
76857;DHT22;69705;44.686;37.628;2023-07-20T11:24:22;31.45;43.87
76857;DHT22;69705;44.686;37.628;2023-07-20T11:26:52;31.50;41.73
76857;DHT22;69705;44.686;37.628;2023-07-20T11:29:23;31.56;42.22
76857;DHT22;69705;44.686;37.628;2023-07-20T11:31:52;31.58;40.16
76857;DHT22;69705;44.686;37.628;2023-07-20T11:34:21;31.65;39.17
76857;DHT22;69705;44.686;37.628;2023-07-20T11:36:49;31.55;40.73
76857;DHT22;69705;44.686;37.628;2023-07-20T11:39:19;31.58;43.05
76857;DHT22;69705;44.686;37.628;2023-07-20T11:41:50;31.61;43.39
76857;DHT22;69705;44.686;37.628;2023-07-20T11:44:18;31.68;40.91
76857;DHT22;69705;44.686;37.628;2023-07-20T11:46:48;31.76;41.04
76857;DHT22;69705;44.686;37.628;2023-07-20T11:49:15;31.79;39.70
76857;DHT22;69705;44.686;37.628;2023-07-20T11:51:42;31.86;39.88
76857;DHT22;69705;44.686;37.628;2023-07-20T11:54:09;31.96;40.04
76857;DHT22;69705;44.686;37.628;2023-07-20T11:56:36;31.87;36.38
76857;DHT22;69705;44.686;37.628;2023-07-20T11:59:07;31.75;39.31
76857;DHT22;69705;44.686;37.628;2023-07-20T12:01:34;31.78;39.60
76857;DHT22;69705;44.686;37.628;2023-07-20T12:04:03;31.75;39.23
76857;DHT22;69705;44.686;37.628;2023-07-20T12:06:30;31.64;43.35
76857;DHT22;69705;44.686;37.628;2023-07-20T12:08:58;31.75;40.63
76857;DHT22;69705;44.686;37.628;2023-07-20T12:11:32;31.86;40.26
76857;DHT22;69705;44.686;37.628;2023-07-20T12:14:00;32.03;40.32
76857;DHT22;69705;44.686;37.628;2023-07-20T12:16:28;32.03;37.52
76857;DHT22;69705;44.686;37.628;2023-07-20T12:19:05;32.10;38.89
76857;DHT22;69705;44.686;37.628;2023-07-20T12:21:34;32.17;40.30
76857;DHT22;69705;44.686;37.628;2023-07-20T12:24:02;32.28;38.68
76857;DHT22;69705;44.686;37.628;2023-07-20T12:26:30;32.26;38.65
76857;DHT22;69705;44.686;37.628;2023-07-20T12:28:57;32.32;38.24
76857;DHT22;69705;44.686;37.628;2023-07-20T12:31:25;32.41;38.10
76857;DHT22;69705;44.686;37.628;2023-07-20T12:33:53;32.34;38.40
76857;DHT22;69705;44.686;37.628;2023-07-20T12:36:21;32.49;39.94
76857;DHT22;69705;44.686;37.628;2023-07-20T12:38:50;32.35;38.79
76857;DHT22;69705;44.686;37.628;2023-07-20T12:41:17;32.44;38.98
76857;DHT22;69705;44.686;37.628;2023-07-20T12:43:44;32.33;37.68
76857;DHT22;69705;44.686;37.628;2023-07-20T12:46:13;32.38;37.89
76857;DHT22;69705;44.686;37.628;2023-07-20T12:48:41;32.44;36.26
76857;DHT22;69705;44.686;37.628;2023-07-20T12:51:09;32.41;37.62
76857;DHT22;69705;44.686;37.628;2023-07-20T12:53:36;32.41;39.30
76857;DHT22;69705;44.686;37.628;2023-07-20T12:56:04;32.49;37.08
76857;DHT22;69705;44.686;37.628;2023-07-20T12:58:31;32.41;34.70
76857;DHT22;69705;44.686;37.628;2023-07-20T13:00:58;32.45;36.64
76857;DHT22;69705;44.686;37.628;2023-07-20T13:03:25;32.53;37.17
76857;DHT22;69705;44.686;37.628;2023-07-20T13:05:52;32.47;37.62
76857;DHT22;69705;44.686;37.628;2023-07-20T13:08:19;32.37;40.18
76857;DHT22;69705;44.686;37.628;2023-07-20T13:10:46;32.30;38.98
76857;DHT22;69705;44.686;37.628;2023-07-20T13:13:13;32.32;38.15
76857;DHT22;69705;44.686;37.628;2023-07-20T13:15:44;32.41;39.92
76857;DHT22;69705;44.686;37.628;2023-07-20T13:18:12;32.26;40.22
76857;DHT22;69705;44.686;37.628;2023-07-20T13:20:39;32.22;37.56
76857;DHT22;69705;44.686;37.628;2023-07-20T13:23:07;32.23;38.85
76857;DHT22;69705;44.686;37.628;2023-07-20T13:25:34;32.20;37.60
76857;DHT22;69705;44.686;37.628;2023-07-20T13:28:00;32.05;39.03
76857;DHT22;69705;44.686;37.628;2023-07-20T13:30:27;32.05;37.83
76857;DHT22;69705;44.686;37.628;2023-07-20T13:32:54;32.14;40.08
76857;DHT22;69705;44.686;37.628;2023-07-20T13:35:21;32.18;40.33
76857;DHT22;69705;44.686;37.628;2023-07-20T13:37:48;32.30;40.91
76857;DHT22;69705;44.686;37.628;2023-07-20T13:40:16;32.28;39.77
76857;DHT22;69705;44.686;37.628;2023-07-20T13:42:45;32.22;38.01
76857;DHT22;69705;44.686;37.628;2023-07-20T13:45:12;32.04;38.63
76857;DHT22;69705;44.686;37.628;2023-07-20T13:47:39;32.01;43.25
76857;DHT22;69705;44.686;37.628;2023-07-20T13:50:06;32.04;42.42
76857;DHT22;69705;44.686;37.628;2023-07-20T13:52:33;31.99;43.24
76857;DHT22;69705;44.686;37.628;2023-07-20T13:55:01;31.86;42.53
76857;DHT22;69705;44.686;37.628;2023-07-20T13:57:28;31.73;40.91
76857;DHT22;69705;44.686;37.628;2023-07-20T13:59:55;31.54;40.27
76857;DHT22;69705;44.686;37.628;2023-07-20T14:02:22;31.48;42.51
76857;DHT22;69705;44.686;37.628;2023-07-20T14:04:49;31.56;44.04
76857;DHT22;69705;44.686;37.628;2023-07-20T14:07:16;31.51;41.67
76857;DHT22;69705;44.686;37.628;2023-07-20T14:09:43;31.39;40.71
76857;DHT22;69705;44.686;37.628;2023-07-20T14:12:10;31.34;45.35
76857;DHT22;69705;44.686;37.628;2023-07-20T14:14:40;31.37;42.91
76857;DHT22;69705;44.686;37.628;2023-07-20T14:17:08;31.29;45.47
76857;DHT22;69705;44.686;37.628;2023-07-20T14:19:37;31.21;45.75
76857;DHT22;69705;44.686;37.628;2023-07-20T14:22:04;31.21;44.22
76857;DHT22;69705;44.686;37.628;2023-07-20T14:24:31;31.18;41.07
76857;DHT22;69705;44.686;37.628;2023-07-20T14:26:58;31.16;45.12
76857;DHT22;69705;44.686;37.628;2023-07-20T14:29:27;30.94;46.57
76857;DHT22;69705;44.686;37.628;2023-07-20T14:31:58;30.81;43.69
76857;DHT22;69705;44.686;37.628;2023-07-20T14:34:25;30.76;44.70
76857;DHT22;69705;44.686;37.628;2023-07-20T14:36:52;30.64;44.82
76857;DHT22;69705;44.686;37.628;2023-07-20T14:39:19;30.59;44.67
76857;DHT22;69705;44.686;37.628;2023-07-20T14:41:46;30.48;47.99
76857;DHT22;69705;44.686;37.628;2023-07-20T14:44:13;30.27;46.95
76857;DHT22;69705;44.686;37.628;2023-07-20T14:46:40;30.23;48.41
76857;DHT22;69705;44.686;37.628;2023-07-20T14:49:08;30.11;44.71
76857;DHT22;69705;44.686;37.628;2023-07-20T14:51:35;29.97;51.43
76857;DHT22;69705;44.686;37.628;2023-07-20T14:54:02;29.82;49.04
76857;DHT22;69705;44.686;37.628;2023-07-20T14:56:29;29.75;49.91
76857;DHT22;69705;44.686;37.628;2023-07-20T14:58:56;29.62;47.47
76857;DHT22;69705;44.686;37.628;2023-07-20T15:01:24;29.57;47.96
76857;DHT22;69705;44.686;37.628;2023-07-20T15:03:52;29.45;48.99
76857;DHT22;69705;44.686;37.628;2023-07-20T15:06:20;29.26;49.08
76857;DHT22;69705;44.686;37.628;2023-07-20T15:08:47;29.09;45.40
76857;DHT22;69705;44.686;37.628;2023-07-20T15:11:14;29.06;46.59
76857;DHT22;69705;44.686;37.628;2023-07-20T15:13:41;28.93;49.76
76857;DHT22;69705;44.686;37.628;2023-07-20T15:16:09;28.83;49.04
76857;DHT22;69705;44.686;37.628;2023-07-20T15:18:39;28.63;45.25
76857;DHT22;69705;44.686;37.628;2023-07-20T15:21:05;28.58;51.21
76857;DHT22;69705;44.686;37.628;2023-07-20T15:23:32;28.42;44.67
76857;DHT22;69705;44.686;37.628;2023-07-20T15:25:59;28.41;49.02
76857;DHT22;69705;44.686;37.628;2023-07-20T15:28:27;28.37;45.52
76857;DHT22;69705;44.686;37.628;2023-07-20T15:31:04;28.32;49.56
76857;DHT22;69705;44.686;37.628;2023-07-20T15:33:31;28.25;43.80
76857;DHT22;69705;44.686;37.628;2023-07-20T15:35:58;28.30;46.44
76857;DHT22;69705;44.686;37.628;2023-07-20T15:38:25;28.18;45.56